Time;durP1;ratioP1;P1;durP2;ratioP2;P2;SDS_P1;SDS_P2;PMS_P1;PMS_P2;Temp;Humidity;BMP_temperature;BMP_pressure;BME280_temperature;BME280_humidity;BME280_pressure;Samples;Min_cycle;Max_cycle;Signal;HPM_P1;HPM_P2
2024/04/09 00:01:28;;;;;;;7.22;3.40;;;14.60;92.40;;;;;;5301492;26;20009;-78
2024/04/09 00:03:54;;;;;;;10.82;3.10;;;14.60;92.50;;;;;;5323183;26;20021;-81
2024/04/09 00:06:19;;;;;;;7.50;3.25;;;14.60;92.50;;;;;;5316567;26;20001;-79
2024/04/09 00:08:45;;;;;;;8.07;3.38;;;14.60;92.50;;;;;;5313519;26;20071;-80
2024/04/09 00:11:21;;;;;;;6.82;3.10;;;14.50;92.50;;;;;;5330191;26;20001;-79
2024/04/09 00:13:54;;;;;;;12.55;3.55;;;14.50;92.50;;;;;;5308324;26;19998;-79
2024/04/09 00:16:27;;;;;;;8.30;3.75;;;14.50;92.60;;;;;;5320717;26;20029;-80
2024/04/09 00:18:53;;;;;;;9.88;3.70;;;14.50;92.70;;;;;;5312916;26;20028;-81
2024/04/09 00:21:23;;;;;;;6.20;2.67;;;14.50;92.40;;;;;;5326650;26;20029;-78
2024/04/09 00:23:49;;;;;;;8.10;3.03;;;14.40;92.30;;;;;;5309621;26;20005;-78
2024/04/09 00:26:16;;;;;;;9.60;3.67;;;14.40;91.90;;;;;;5323863;26;20532;-81
2024/04/09 00:28:42;;;;;;;7.90;2.30;;;14.30;91.80;;;;;;5322679;26;20004;-79
2024/04/09 00:31:07;;;;;;;8.02;2.47;;;14.10;91.20;;;;;;5306067;26;20025;-77
2024/04/09 00:33:33;;;;;;;6.53;2.10;;;14.10;91.10;;;;;;5297740;26;20001;-80
2024/04/09 00:35:59;;;;;;;4.90;2.45;;;14.10;90.80;;;;;;5316068;26;20484;-78
2024/04/09 00:38:27;;;;;;;9.18;2.33;;;14.10;90.50;;;;;;5269925;26;20337;-79
2024/04/09 00:40:53;;;;;;;8.05;3.03;;;14.10;90.60;;;;;;5322546;26;19997;-80
2024/04/09 00:43:18;;;;;;;6.50;2.80;;;14.10;90.80;;;;;;5337517;26;20038;-77
2024/04/09 00:45:47;;;;;;;8.73;2.50;;;14.10;91.00;;;;;;5327109;26;20074;-80
2024/04/09 00:48:13;;;;;;;8.25;2.80;;;14.10;91.10;;;;;;5314142;26;20002;-80
2024/04/09 00:50:45;;;;;;;6.72;2.30;;;14.10;91.20;;;;;;5315762;26;20444;-78
2024/04/09 00:53:11;;;;;;;9.32;2.38;;;14.10;91.10;;;;;;5317556;26;19998;-78
2024/04/09 00:55:42;;;;;;;8.23;2.58;;;14.00;90.30;;;;;;5322092;26;20353;-76
2024/04/09 00:58:11;;;;;;;7.82;2.30;;;14.00;90.20;;;;;;5323217;26;20750;-76
2024/04/09 01:00:40;;;;;;;5.05;2.40;;;14.00;89.90;;;;;;5308703;26;19997;-78
2024/04/09 01:03:09;;;;;;;7.40;2.03;;;14.00;89.60;;;;;;5315682;26;20291;-78
2024/04/09 01:05:36;;;;;;;9.85;2.53;;;14.00;89.70;;;;;;5293858;26;20016;-78
2024/04/09 01:08:03;;;;;;;5.65;2.25;;;13.90;88.80;;;;;;5280662;26;20087;-79
2024/04/09 01:10:28;;;;;;;6.85;2.28;;;13.80;88.80;;;;;;5312439;26;20079;-78
2024/04/09 01:12:54;;;;;;;6.07;2.20;;;13.90;89.00;;;;;;5330083;26;20020;-80
2024/04/09 01:15:20;;;;;;;6.07;2.28;;;13.80;89.00;;;;;;5325468;26;20046;-79
2024/04/09 01:17:45;;;;;;;6.15;1.67;;;13.80;89.20;;;;;;5327266;26;20327;-79
2024/04/09 01:20:13;;;;;;;8.50;1.98;;;13.80;89.30;;;;;;5324149;26;20436;-77
2024/04/09 01:22:39;;;;;;;7.93;2.13;;;13.80;89.60;;;;;;5325093;26;20004;-77
2024/04/09 01:25:05;;;;;;;4.72;1.90;;;13.80;89.40;;;;;;5310801;26;20009;-79
2024/04/09 01:27:33;;;;;;;6.75;2.00;;;13.80;89.50;;;;;;5311762;26;20012;-77
2024/04/09 01:30:00;;;;;;;6.55;2.25;;;13.90;88.90;;;;;;5311626;26;20341;-77
2024/04/09 01:32:26;;;;;;;9.32;2.80;;;13.90;88.60;;;;;;5318524;26;20020;-77
2024/04/09 01:34:52;;;;;;;6.75;1.88;;;13.80;88.80;;;;;;5321342;26;20000;-79
2024/04/09 01:37:18;;;;;;;6.72;1.83;;;13.70;89.10;;;;;;5324273;26;20955;-80
2024/04/09 01:39:45;;;;;;;8.55;2.08;;;13.70;88.90;;;;;;5306768;26;20385;-78
2024/04/09 01:42:11;;;;;;;9.85;2.50;;;13.60;88.50;;;;;;5318754;26;20002;-77
2024/04/09 01:44:37;;;;;;;8.20;1.65;;;13.70;88.80;;;;;;5324514;26;20103;-80
2024/04/09 01:47:05;;;;;;;8.68;2.08;;;13.60;88.80;;;;;;5327246;26;20076;-77
2024/04/09 01:49:31;;;;;;;9.15;2.38;;;13.60;88.80;;;;;;5318720;26;20012;-80
2024/04/09 01:51:57;;;;;;;9.23;2.53;;;13.50;88.90;;;;;;5324710;26;20329;-79
2024/04/09 01:54:23;;;;;;;9.20;2.22;;;13.50;88.80;;;;;;5322902;26;20016;-77
2024/04/09 01:56:48;;;;;;;7.55;2.13;;;13.40;88.80;;;;;;5311256;26;20351;-77
2024/04/09 01:59:14;;;;;;;6.97;1.90;;;13.30;89.20;;;;;;5318453;26;20025;-77
2024/04/09 02:01:44;;;;;;;10.30;2.45;;;13.40;89.60;;;;;;5305157;26;20033;-77
2024/04/09 02:04:11;;;;;;;8.73;2.55;;;13.30;89.40;;;;;;5325363;26;20013;-77
2024/04/09 02:06:37;;;;;;;7.28;2.08;;;13.30;89.70;;;;;;5328876;26;20526;-77
2024/04/09 02:09:03;;;;;;;6.60;2.35;;;13.30;89.80;;;;;;5317103;26;20064;-77
2024/04/09 02:11:31;;;;;;;7.13;2.38;;;13.30;90.00;;;;;;5330642;26;20009;-80
2024/04/09 02:13:57;;;;;;;6.05;1.98;;;13.30;90.20;;;;;;5328851;26;19998;-78
2024/04/09 02:16:23;;;;;;;7.68;1.98;;;13.30;90.20;;;;;;5323437;26;20312;-77
2024/04/09 02:18:49;;;;;;;8.77;2.00;;;13.30;90.30;;;;;;5324023;26;20856;-78
2024/04/09 02:21:20;;;;;;;10.57;2.58;;;13.30;90.60;;;;;;5332538;26;20795;-76
2024/04/09 02:23:46;;;;;;;6.88;2.13;;;13.30;90.70;;;;;;5324111;26;20082;-79
2024/04/09 02:26:12;;;;;;;6.80;2.00;;;13.30;90.60;;;;;;5327349;26;20114;-79
2024/04/09 02:28:37;;;;;;;7.13;1.95;;;13.20;90.80;;;;;;5328580;26;20008;-77
2024/04/09 02:31:06;;;;;;;11.13;2.40;;;13.20;90.80;;;;;;5326770;26;20384;-77
2024/04/09 02:33:33;;;;;;;8.32;2.38;;;13.20;90.80;;;;;;5332889;26;20012;-81
2024/04/09 02:36:01;;;;;;;9.05;2.25;;;13.10;90.80;;;;;;5325448;26;20521;-77
2024/04/09 02:38:29;;;;;;;10.50;2.35;;;13.10;90.40;;;;;;5331067;26;20024;-77
2024/04/09 02:40:54;;;;;;;8.52;2.50;;;13.10;90.50;;;;;;5317353;26;20361;-80
2024/04/09 02:43:23;;;;;;;9.57;2.80;;;13.10;90.30;;;;;;5323111;26;19997;-77
2024/04/09 02:45:49;;;;;;;12.85;2.78;;;13.00;89.80;;;;;;5293459;26;20707;-77
2024/04/09 02:48:16;;;;;;;14.38;3.38;;;12.90;89.00;;;;;;5287958;26;20046;-78
2024/04/09 02:50:51;;;;;;;9.57;2.60;;;12.70;89.30;;;;;;5321281;26;19997;-77
2024/04/09 02:53:16;;;;;;;9.25;2.30;;;12.60;89.70;;;;;;5328793;26;20008;-77
2024/04/09 02:55:43;;;;;;;7.07;2.45;;;12.70;90.00;;;;;;5322656;26;22108;-77
2024/04/09 02:58:09;;;;;;;8.30;2.47;;;12.70;89.90;;;;;;5330137;26;20013;-77
2024/04/09 03:00:40;;;;;;;11.65;2.45;;;12.70;90.00;;;;;;5329576;26;20309;-76
2024/04/09 03:03:06;;;;;;;9.93;2.58;;;12.70;90.10;;;;;;5328751;26;20043;-76
2024/04/09 03:05:32;;;;;;;8.98;2.65;;;12.70;90.40;;;;;;5322777;26;20028;-78
2024/04/09 03:08:01;;;;;;;6.97;2.30;;;12.70;90.60;;;;;;5328935;26;20091;-78
2024/04/09 03:10:32;;;;;;;9.25;2.65;;;12.80;90.70;;;;;;5330097;26;20040;-78
2024/04/09 03:12:58;;;;;;;7.93;2.35;;;12.80;90.50;;;;;;5317421;26;19993;-80
2024/04/09 03:15:24;;;;;;;9.70;2.65;;;12.70;89.20;;;;;;5331206;26;20018;-78
2024/04/09 03:17:51;;;;;;;6.88;2.45;;;12.60;89.30;;;;;;5323320;26;20008;-76
2024/04/09 03:20:17;;;;;;;7.88;2.35;;;12.60;88.90;;;;;;5332004;26;20353;-78
2024/04/09 03:22:43;;;;;;;8.43;2.25;;;12.60;87.90;;;;;;5328819;26;20001;-77
2024/04/09 03:25:08;;;;;;;7.35;2.30;;;12.50;87.30;;;;;;5325707;26;20128;-76
2024/04/09 03:27:34;;;;;;;7.60;2.00;;;12.40;86.00;;;;;;5325965;26;20078;-77
2024/04/09 03:30:01;;;;;;;8.05;1.88;;;12.30;85.60;;;;;;5326072;26;20040;-79
2024/04/09 03:32:28;;;;;;;5.57;1.58;;;12.20;85.70;;;;;;5328140;26;20005;-80
2024/04/09 03:34:54;;;;;;;8.60;2.25;;;12.10;85.60;;;;;;5321005;26;20012;-78
2024/04/09 03:37:20;;;;;;;6.15;2.22;;;12.10;85.20;;;;;;5329080;26;19996;-77
2024/04/09 03:39:45;;;;;;;9.23;2.55;;;11.90;84.10;;;;;;5329133;26;19996;-79
2024/04/09 03:42:11;;;;;;;8.88;2.10;;;11.90;83.80;;;;;;5329784;26;20008;-76
2024/04/09 03:44:37;;;;;;;9.50;2.47;;;11.90;83.70;;;;;;5330220;26;20079;-77
2024/04/09 03:47:07;;;;;;;6.80;2.83;;;11.90;83.40;;;;;;5328704;26;20008;-81
2024/04/09 03:49:34;;;;;;;9.00;2.00;;;11.90;83.30;;;;;;5317789;26;19996;-80
2024/04/09 03:52:00;;;;;;;6.85;1.83;;;11.90;83.40;;;;;;5328454;26;20078;-76
2024/04/09 03:54:26;;;;;;;9.65;2.78;;;11.80;83.80;;;;;;5334490;26;20027;-77
2024/04/09 03:56:52;;;;;;;8.30;2.65;;;11.90;84.10;;;;;;5313895;26;19997;-77
2024/04/09 03:59:18;;;;;;;8.40;2.22;;;11.80;84.50;;;;;;5327033;26;20379;-78
2024/04/09 04:01:44;;;;;;;9.20;2.65;;;11.90;84.70;;;;;;5319708;26;20009;-77
2024/04/09 04:04:09;;;;;;;7.43;2.10;;;11.90;85.10;;;;;;5321062;26;20596;-79
2024/04/09 04:06:35;;;;;;;9.85;2.80;;;12.00;85.60;;;;;;5323120;26;20015;-77
2024/04/09 04:09:01;;;;;;;9.55;2.47;;;12.00;85.80;;;;;;5352400;26;20009;-76
2024/04/09 04:11:30;;;;;;;10.10;1.95;;;12.00;86.10;;;;;;5333300;26;20095;-78
2024/04/09 04:13:56;;;;;;;5.32;1.70;;;11.90;85.60;;;;;;5336635;26;20891;-81
2024/04/09 04:16:22;;;;;;;6.90;2.10;;;11.80;84.90;;;;;;5328487;26;19997;-77
2024/04/09 04:18:49;;;;;;;6.93;1.95;;;11.70;84.10;;;;;;5330115;26;19997;-76
2024/04/09 04:21:19;;;;;;;7.53;1.80;;;11.60;83.20;;;;;;5291374;26;20062;-79
2024/04/09 04:23:51;;;;;;;7.28;1.55;;;11.60;83.40;;;;;;5282715;26;20002;-76
2024/04/09 04:26:19;;;;;;;8.25;2.20;;;11.60;83.00;;;;;;5276668;26;20021;-78
2024/04/09 04:28:46;;;;;;;7.30;1.77;;;11.50;82.40;;;;;;5284180;26;20402;-78
2024/04/09 04:31:17;;;;;;;6.40;1.40;;;11.50;82.30;;;;;;5322453;26;20009;-76
2024/04/09 04:33:44;;;;;;;8.02;1.88;;;11.40;82.20;;;;;;5328010;26;20715;-76
2024/04/09 04:36:11;;;;;;;6.53;1.77;;;11.40;81.90;;;;;;5326676;26;20460;-76
2024/04/09 04:38:38;;;;;;;6.78;2.08;;;11.30;82.10;;;;;;5327710;26;20012;-79
2024/04/09 04:41:04;;;;;;;5.07;1.60;;;11.30;82.20;;;;;;5326168;26;19997;-76
2024/04/09 04:43:31;;;;;;;9.50;2.20;;;11.30;82.40;;;;;;5326920;26;20015;-76
2024/04/09 04:45:57;;;;;;;9.05;2.15;;;11.30;82.50;;;;;;5328481;26;20001;-78
2024/04/09 04:48:23;;;;;;;11.20;2.50;;;11.40;82.80;;;;;;5325361;26;20003;-79
2024/04/09 04:50:49;;;;;;;8.65;2.08;;;11.30;82.70;;;;;;5328852;26;20479;-80
2024/04/09 04:53:15;;;;;;;9.02;1.90;;;11.30;83.00;;;;;;5336090;26;20004;-77
2024/04/09 04:55:41;;;;;;;8.82;2.08;;;11.30;83.00;;;;;;5324606;26;20059;-77
2024/04/09 04:58:07;;;;;;;6.20;1.52;;;11.30;83.20;;;;;;5326916;26;20001;-79
2024/04/09 05:00:35;;;;;;;9.00;2.28;;;11.30;83.50;;;;;;5320337;26;20001;-78
2024/04/09 05:03:00;;;;;;;10.07;2.70;;;11.20;83.60;;;;;;5317858;26;19998;-79
2024/04/09 05:05:28;;;;;;;7.75;1.80;;;11.10;82.60;;;;;;5332047;26;19997;-78
2024/04/09 05:07:53;;;;;;;7.57;2.05;;;11.10;81.60;;;;;;5324092;26;20012;-80
2024/04/09 05:10:19;;;;;;;9.13;2.25;;;11.00;80.30;;;;;;5320331;26;19997;-77
2024/04/09 05:12:49;;;;;;;11.27;1.95;;;10.90;78.70;;;;;;5302669;26;19997;-76
2024/04/09 05:15:15;;;;;;;9.65;1.70;;;10.80;78.30;;;;;;5319766;26;20705;-78
2024/04/09 05:17:42;;;;;;;7.55;2.00;;;10.80;78.00;;;;;;5321708;26;20060;-77
2024/04/09 05:20:11;;;;;;;8.40;2.03;;;10.60;77.70;;;;;;5323157;26;20004;-79
2024/04/09 05:22:41;;;;;;;8.35;2.65;;;10.60;77.70;;;;;;5322299;26;20705;-76
2024/04/09 05:25:08;;;;;;;11.65;2.30;;;10.60;77.90;;;;;;5324385;26;20013;-76
2024/04/09 05:27:34;;;;;;;10.57;2.25;;;10.50;77.90;;;;;;5320160;26;20322;-81
2024/04/09 05:30:00;;;;;;;7.97;1.63;;;10.50;78.00;;;;;;5312743;26;19993;-79
2024/04/09 05:32:28;;;;;;;5.15;1.50;;;10.40;77.90;;;;;;5327130;26;20117;-80
2024/04/09 05:34:54;;;;;;;9.32;2.10;;;10.40;77.60;;;;;;5319686;26;20016;-81
2024/04/09 05:37:20;;;;;;;9.88;1.90;;;10.40;77.70;;;;;;5320609;26;20001;-79
2024/04/09 05:39:46;;;;;;;9.38;1.73;;;10.40;77.70;;;;;;5323067;26;20001;-79
2024/04/09 05:42:14;;;;;;;9.80;2.20;;;10.40;77.40;;;;;;5326717;26;20005;-79
2024/04/09 05:44:39;;;;;;;7.40;1.70;;;10.40;77.70;;;;;;5328423;26;20453;-78
2024/04/09 05:47:05;;;;;;;7.85;1.77;;;10.30;77.40;;;;;;5321587;26;20001;-78
2024/04/09 05:49:34;;;;;;;5.65;1.65;;;10.30;77.40;;;;;;5328358;26;19993;-77
2024/04/09 05:52:00;;;;;;;7.10;2.33;;;10.40;77.40;;;;;;5313478;26;20025;-77
2024/04/09 05:54:26;;;;;;;6.65;1.65;;;10.30;77.80;;;;;;5325760;26;20009;-78
2024/04/09 05:56:52;;;;;;;8.18;1.70;;;10.20;78.10;;;;;;5327106;26;20061;-77
2024/04/09 05:59:18;;;;;;;11.80;2.10;;;10.20;77.90;;;;;;5324350;26;20019;-77
2024/04/09 06:01:44;;;;;;;7.95;1.92;;;10.20;77.70;;;;;;5322485;26;20004;-81
2024/04/09 06:04:10;;;;;;;5.65;2.00;;;10.20;77.50;;;;;;5324301;26;20005;-76
2024/04/09 06:06:36;;;;;;;7.78;2.35;;;10.20;77.60;;;;;;5315835;26;20001;-76
2024/04/09 06:09:02;;;;;;;6.38;1.67;;;10.20;78.00;;;;;;5326865;26;20321;-78
2024/04/09 06:11:28;;;;;;;8.85;1.95;;;10.20;77.80;;;;;;5320011;26;20012;-76
2024/04/09 06:13:54;;;;;;;11.07;2.30;;;10.10;78.20;;;;;;5321830;26;20001;-78
2024/04/09 06:16:20;;;;;;;8.88;1.80;;;10.20;78.20;;;;;;5322831;26;19997;-77
2024/04/09 06:18:46;;;;;;;9.27;1.80;;;10.20;78.20;;;;;;5323820;26;20218;-80
2024/04/09 06:21:12;;;;;;;9.90;2.00;;;10.20;78.30;;;;;;5322656;26;20005;-81
2024/04/09 06:23:37;;;;;;;9.60;1.90;;;10.20;78.40;;;;;;5329497;26;19992;-76
2024/04/09 06:26:04;;;;;;;10.02;1.90;;;10.30;78.30;;;;;;5317244;26;20016;-76
2024/04/09 06:28:30;;;;;;;9.85;2.30;;;10.30;78.10;;;;;;5330652;26;20416;-76
2024/04/09 06:30:55;;;;;;;7.75;1.80;;;10.40;78.10;;;;;;5315035;26;20006;-78
2024/04/09 06:33:22;;;;;;;12.27;2.20;;;10.50;77.90;;;;;;5326835;26;19997;-80
2024/04/09 06:35:48;;;;;;;8.10;1.83;;;10.50;77.40;;;;;;5321772;26;20788;-78
2024/04/09 06:38:16;;;;;;;6.93;1.80;;;10.60;77.20;;;;;;5324963;26;19996;-79
2024/04/09 06:40:42;;;;;;;11.20;2.00;;;10.60;77.10;;;;;;5324075;26;20349;-80
2024/04/09 06:43:08;;;;;;;4.72;1.77;;;10.60;77.10;;;;;;5318992;26;20002;-78
2024/04/09 06:45:33;;;;;;;7.70;1.92;;;10.70;76.60;;;;;;5318667;26;20008;-77
2024/04/09 06:47:59;;;;;;;6.00;1.80;;;10.70;76.70;;;;;;5337529;26;20137;-78
2024/04/09 06:50:25;;;;;;;7.25;2.03;;;10.60;76.50;;;;;;5326259;26;20011;-77
2024/04/09 06:52:51;;;;;;;9.88;2.80;;;10.70;76.60;;;;;;5331221;26;20081;-77
2024/04/09 06:55:17;;;;;;;4.45;1.50;;;10.80;76.40;;;;;;5323684;26;20052;-77
2024/04/09 06:57:45;;;;;;;6.28;1.88;;;10.90;76.30;;;;;;5330054;26;20421;-78
2024/04/09 07:00:14;;;;;;;8.25;2.08;;;11.00;76.30;;;;;;5310192;26;20460;-79
2024/04/09 07:02:40;;;;;;;8.25;1.90;;;11.10;75.90;;;;;;5318113;26;19997;-78
2024/04/09 07:05:07;;;;;;;10.30;1.83;;;11.10;75.50;;;;;;5323854;26;20001;-77
2024/04/09 07:07:34;;;;;;;8.20;2.05;;;11.10;75.70;;;;;;5313585;26;20052;-78
2024/04/09 07:10:00;;;;;;;5.82;1.70;;;11.20;75.40;;;;;;5331139;26;20024;-77
2024/04/09 07:12:27;;;;;;;8.57;2.13;;;11.30;75.40;;;;;;5328884;26;20032;-76
2024/04/09 07:14:53;;;;;;;5.10;1.50;;;11.40;74.80;;;;;;5340309;26;19997;-78
2024/04/09 07:17:19;;;;;;;6.55;1.83;;;11.30;74.40;;;;;;5315076;26;19998;-77
2024/04/09 07:19:45;;;;;;;7.88;1.65;;;11.40;74.60;;;;;;5327126;26;20310;-77
2024/04/09 07:22:11;;;;;;;5.93;1.75;;;11.20;74.50;;;;;;5314147;26;20005;-79
2024/04/09 07:24:37;;;;;;;5.15;1.88;;;11.20;74.80;;;;;;5306311;26;20513;-77
2024/04/09 07:27:03;;;;;;;5.50;1.40;;;11.20;74.70;;;;;;5287619;26;19994;-77
2024/04/09 07:29:31;;;;;;;6.65;1.42;;;11.50;74.60;;;;;;5277991;26;20079;-78
2024/04/09 07:31:56;;;;;;;8.07;1.85;;;11.60;73.70;;;;;;5275200;26;20464;-77
2024/04/09 07:34:23;;;;;;;6.45;1.80;;;11.70;74.00;;;;;;5285711;26;20023;-77
2024/04/09 07:36:49;;;;;;;6.63;1.75;;;11.90;73.50;;;;;;5333000;26;20013;-76
2024/04/09 07:39:15;;;;;;;7.22;1.95;;;11.90;73.30;;;;;;5311931;26;20012;-77
2024/04/09 07:41:41;;;;;;;7.40;1.52;;;12.10;73.40;;;;;;5307283;26;20357;-77
2024/04/09 07:44:07;;;;;;;5.70;1.42;;;12.20;72.50;;;;;;5307284;26;20002;-78
2024/04/09 07:46:33;;;;;;;6.70;1.80;;;12.10;71.80;;;;;;5311378;26;20080;-77
2024/04/09 07:49:04;;;;;;;7.93;1.58;;;12.20;71.70;;;;;;5313290;26;20038;-77
2024/04/09 07:51:30;;;;;;;4.63;1.50;;;12.30;71.60;;;;;;5307296;26;20009;-81
2024/04/09 07:53:56;;;;;;;5.35;1.70;;;12.40;71.50;;;;;;5285020;26;20002;-82
2024/04/09 07:56:22;;;;;;;5.75;1.67;;;12.40;71.20;;;;;;5284356;26;20013;-79
2024/04/09 07:58:47;;;;;;;4.55;1.40;;;12.60;71.10;;;;;;5277388;26;20004;-78
2024/04/09 08:01:13;;;;;;;6.60;1.60;;;12.80;71.40;;;;;;5314955;26;20334;-78
2024/04/09 08:03:39;;;;;;;7.35;1.75;;;12.70;70.60;;;;;;5329131;26;20402;-80
2024/04/09 08:06:06;;;;;;;7.10;1.85;;;12.80;71.20;;;;;;5328028;26;20029;-80
2024/04/09 08:08:32;;;;;;;7.45;1.65;;;13.10;70.60;;;;;;5313757;26;20426;-79
2024/04/09 08:10:58;;;;;;;6.97;1.42;;;13.30;68.80;;;;;;5314104;26;20017;-79
2024/04/09 08:13:25;;;;;;;4.40;1.70;;;13.50;69.10;;;;;;5283080;27;20006;-80
2024/04/09 08:15:54;;;;;;;9.57;1.98;;;13.40;68.40;;;;;;5279215;26;20005;-81
2024/04/09 08:18:20;;;;;;;7.82;1.63;;;13.30;67.90;;;;;;5329775;26;20674;-81
2024/04/09 08:20:46;;;;;;;5.15;1.55;;;13.60;68.20;;;;;;5325138;26;20009;-79
2024/04/09 08:23:11;;;;;;;5.88;1.85;;;13.70;68.50;;;;;;5325180;26;20025;-79
2024/04/09 08:25:37;;;;;;;7.30;2.22;;;13.60;67.60;;;;;;5324071;26;20011;-81
2024/04/09 08:28:03;;;;;;;5.63;1.60;;;13.50;67.60;;;;;;5326261;26;20413;-77
2024/04/09 08:30:29;;;;;;;7.55;1.70;;;13.30;68.50;;;;;;5321391;26;20005;-79
2024/04/09 08:32:55;;;;;;;7.97;1.67;;;13.50;68.50;;;;;;5301923;26;20005;-78
2024/04/09 08:35:20;;;;;;;7.93;1.95;;;13.30;67.70;;;;;;5314838;26;20030;-79
2024/04/09 08:37:47;;;;;;;9.80;1.85;;;13.30;67.40;;;;;;5315591;26;20732;-84
2024/04/09 08:40:17;;;;;;;6.20;1.63;;;13.30;67.30;;;;;;5315895;26;20016;-79
2024/04/09 08:42:44;;;;;;;6.22;1.40;;;13.30;67.50;;;;;;5289226;26;20006;-78
2024/04/09 08:45:16;;;;;;;5.90;1.83;;;13.30;67.40;;;;;;5286826;26;20079;-79
2024/04/09 08:47:43;;;;;;;7.22;1.60;;;13.20;67.40;;;;;;5282360;26;20241;-77
2024/04/09 08:50:09;;;;;;;7.03;1.55;;;13.40;67.10;;;;;;5279671;26;20045;-78
2024/04/09 08:52:36;;;;;;;7.22;1.38;;;13.60;67.60;;;;;;5287277;26;20040;-76
2024/04/09 08:55:06;;;;;;;6.45;1.50;;;13.70;66.90;;;;;;5283505;26;20014;-76
2024/04/09 08:57:32;;;;;;;5.75;1.42;;;13.90;66.10;;;;;;5289934;26;20001;-76
2024/04/09 08:59:58;;;;;;;7.95;1.70;;;13.80;66.50;;;;;;5285318;26;20001;-80
2024/04/09 09:02:23;;;;;;;10.65;1.58;;;13.80;66.10;;;;;;5291129;26;20022;-76
2024/04/09 09:04:49;;;;;;;8.90;1.73;;;13.90;66.80;;;;;;5298115;26;20011;-77
2024/04/09 09:07:17;;;;;;;5.13;1.52;;;14.10;65.90;;;;;;5326163;26;20002;-78
2024/04/09 09:09:43;;;;;;;8.55;1.50;;;14.10;65.70;;;;;;5316369;26;20493;-78
2024/04/09 09:12:09;;;;;;;8.38;1.67;;;14.10;65.90;;;;;;5274592;26;20002;-80
2024/04/09 09:14:35;;;;;;;6.63;1.52;;;14.10;65.70;;;;;;5277140;26;20012;-76
2024/04/09 09:17:05;;;;;;;5.93;1.50;;;14.00;65.70;;;;;;5317572;26;19997;-76
2024/04/09 09:19:33;;;;;;;8.40;1.60;;;14.00;66.10;;;;;;5313879;26;20028;-78
2024/04/09 09:22:06;;;;;;;8.00;1.60;;;14.00;66.20;;;;;;5321416;26;20005;-78
2024/04/09 09:24:34;;;;;;;10.25;1.77;;;13.70;65.80;;;;;;5317504;26;20715;-80
2024/04/09 09:27:04;;;;;;;7.03;1.60;;;13.60;67.10;;;;;;5325173;26;21182;-76
2024/04/09 09:29:31;;;;;;;5.82;1.90;;;13.60;66.90;;;;;;5325918;26;20447;-79
2024/04/09 09:31:58;;;;;;;6.25;1.52;;;13.50;66.90;;;;;;5282375;26;20804;-81
2024/04/09 09:34:43;;;;;;;5.45;1.70;;;13.30;67.20;;;;;;5287681;26;20533;-78
2024/04/09 09:37:10;;;;;;;6.45;1.50;;;13.30;67.70;;;;;;5318416;26;20019;-80
2024/04/09 09:39:40;;;;;;;4.30;1.08;;;13.20;67.70;;;;;;5328566;26;20114;-78
2024/04/09 09:42:15;;;;;;;6.18;1.70;;;13.20;67.00;;;;;;5333571;26;20019;-79
2024/04/09 09:44:42;;;;;;;7.88;1.85;;;13.10;67.80;;;;;;5345140;26;20001;-80
2024/04/09 09:47:08;;;;;;;5.45;1.60;;;13.20;67.70;;;;;;5332079;26;20078;-78
2024/04/09 09:49:35;;;;;;;8.10;1.83;;;13.10;67.60;;;;;;5325738;26;20020;-79
2024/04/09 09:52:02;;;;;;;7.97;1.70;;;13.30;68.20;;;;;;5334778;26;20005;-82
2024/04/09 09:54:28;;;;;;;5.07;1.50;;;13.20;67.90;;;;;;5326279;26;20057;-77
2024/04/09 09:57:18;;;;;;;7.75;1.50;;;13.40;68.50;;;;;;5324191;26;19997;-78
2024/04/09 09:59:57;;;;;;;4.63;1.58;;;13.40;66.30;;;;;;5327293;26;20008;-81
2024/04/09 10:02:28;;;;;;;5.68;1.50;;;13.40;66.20;;;;;;5337412;26;20051;-80
2024/04/09 10:04:59;;;;;;;6.65;1.52;;;13.60;66.30;;;;;;5312215;26;19997;-78
2024/04/09 10:07:27;;;;;;;4.50;1.50;;;13.70;67.10;;;;;;5325383;26;20029;-80
2024/04/09 10:09:53;;;;;;;10.07;1.98;;;13.80;66.70;;;;;;5323380;26;20012;-79
2024/04/09 10:12:29;;;;;;;3.33;1.48;;;13.70;66.60;;;;;;5309642;26;20095;-82
2024/04/09 10:15:15;;;;;;;6.28;1.60;;;14.10;67.10;;;;;;5320897;26;20001;-80
2024/04/09 10:17:55;;;;;;;6.32;1.60;;;14.10;67.10;;;;;;5309460;26;20000;-80
2024/04/09 10:20:26;;;;;;;6.45;1.70;;;14.30;66.70;;;;;;5309690;26;20013;-80
2024/04/09 10:22:53;;;;;;;5.75;1.60;;;14.00;66.60;;;;;;5311621;26;20988;-79
2024/04/09 10:25:24;;;;;;;5.75;1.48;;;13.90;67.80;;;;;;5313417;26;20880;-82
2024/04/09 10:28:28;;;;;;;6.22;1.23;;;14.10;66.50;;;;;;5319459;26;20448;-79
2024/04/09 10:30:58;;;;;;;6.00;1.45;;;14.50;66.40;;;;;;5316381;26;20001;-81
2024/04/09 10:33:29;;;;;;;7.25;1.50;;;14.80;65.80;;;;;;5331366;26;20012;-80
2024/04/09 10:35:58;;;;;;;5.28;1.88;;;14.60;64.60;;;;;;5330473;26;20383;-79
2024/04/09 10:38:25;;;;;;;8.63;1.52;;;14.70;64.50;;;;;;5331231;26;20013;-79
2024/04/09 10:40:51;;;;;;;9.68;2.47;;;14.60;64.40;;;;;;5337090;26;20005;-81
2024/04/09 10:43:17;;;;;;;6.05;1.75;;;14.70;64.20;;;;;;5321284;26;20047;-80
2024/04/09 10:45:43;;;;;;;4.68;1.60;;;14.90;64.00;;;;;;5325691;26;20112;-80
2024/04/09 10:48:09;;;;;;;6.13;1.25;;;14.90;63.00;;;;;;5329763;26;20017;-81
2024/04/09 10:50:35;;;;;;;7.35;1.55;;;14.60;63.50;;;;;;5328921;26;20380;-80
2024/04/09 10:53:02;;;;;;;3.33;1.20;;;14.30;63.90;;;;;;5320257;26;20002;-80
2024/04/09 10:55:28;;;;;;;6.50;1.38;;;14.10;64.20;;;;;;5306046;26;20451;-81
2024/04/09 10:57:54;;;;;;;5.18;1.50;;;13.80;65.20;;;;;;5275469;26;20062;-77
2024/04/09 11:00:21;;;;;;;4.85;1.40;;;13.90;65.70;;;;;;5294378;26;20013;-81
2024/04/09 11:02:47;;;;;;;7.53;1.48;;;13.70;66.60;;;;;;5275429;26;20018;-79
2024/04/09 11:05:16;;;;;;;7.55;1.77;;;14.10;67.60;;;;;;5296885;26;20005;-80
2024/04/09 11:07:43;;;;;;;4.65;1.30;;;14.30;66.30;;;;;;5324832;26;20167;-79
2024/04/09 11:10:14;;;;;;;5.68;1.30;;;14.60;65.10;;;;;;5328132;26;19997;-80
2024/04/09 11:12:48;;;;;;;6.10;1.23;;;15.10;64.10;;;;;;5330895;26;20001;-81
2024/04/09 11:15:15;;;;;;;4.43;1.33;;;14.80;63.90;;;;;;5328939;26;20398;-79
2024/04/09 11:17:41;;;;;;;6.47;1.55;;;14.80;64.20;;;;;;5283281;26;20034;-80
2024/04/09 11:20:11;;;;;;;6.03;1.30;;;15.10;63.70;;;;;;5283896;26;19997;-80
2024/04/09 11:22:43;;;;;;;6.63;1.80;;;14.90;63.90;;;;;;5275552;26;20001;-80
2024/04/09 11:25:15;;;;;;;6.70;1.50;;;15.10;63.80;;;;;;5307015;26;20340;-81
2024/04/09 11:27:47;;;;;;;5.18;1.58;;;15.40;62.10;;;;;;5327004;26;20409;-81
2024/04/09 11:30:26;;;;;;;3.42;1.30;;;15.40;61.90;;;;;;5319188;26;19997;-79
2024/04/09 11:32:57;;;;;;;4.90;1.60;;;15.00;62.10;;;;;;5329615;26;20017;-79
2024/04/09 11:35:25;;;;;;;6.97;1.60;;;14.80;63.50;;;;;;5322941;26;19997;-79
2024/04/09 11:37:57;;;;;;;5.82;1.77;;;14.70;63.40;;;;;;5310841;26;20008;-80
2024/04/09 11:40:24;;;;;;;5.13;1.60;;;14.70;65.30;;;;;;5313696;26;20539;-80
2024/04/09 11:42:54;;;;;;;5.22;1.30;;;15.10;63.10;;;;;;5317193;26;20008;-79
2024/04/09 11:45:25;;;;;;;4.10;1.33;;;15.10;62.60;;;;;;5301217;26;20023;-81
2024/04/09 11:47:50;;;;;;;5.43;1.30;;;15.40;63.40;;;;;;5310843;26;20056;-80
2024/04/09 11:50:17;;;;;;;6.15;1.63;;;15.60;61.70;;;;;;5309852;26;20001;-79
2024/04/09 11:52:43;;;;;;;6.20;1.45;;;15.50;61.10;;;;;;5334383;26;20019;-80
2024/04/09 11:55:09;;;;;;;7.35;1.38;;;15.50;61.80;;;;;;5333100;26;20008;-79
2024/04/09 11:57:35;;;;;;;7.55;1.92;;;15.30;62.00;;;;;;5330328;26;20000;-80
2024/04/09 12:00:02;;;;;;;6.68;1.55;;;15.30;63.80;;;;;;5334162;26;20009;-80
2024/04/09 12:02:28;;;;;;;6.47;1.73;;;15.30;63.50;;;;;;5309223;26;20053;-80
2024/04/09 12:04:54;;;;;;;9.80;2.25;;;15.20;64.40;;;;;;5320460;26;20016;-79
2024/04/09 12:07:19;;;;;;;9.18;1.80;;;15.30;64.20;;;;;;5311757;26;20092;-79
2024/04/09 12:09:45;;;;;;;7.85;1.67;;;15.50;63.90;;;;;;5319671;26;20045;-81
2024/04/09 12:12:11;;;;;;;7.50;2.17;;;15.60;63.90;;;;;;5305154;26;20583;-80
2024/04/09 12:14:37;;;;;;;6.45;1.60;;;15.40;63.60;;;;;;5315762;26;20043;-80
2024/04/09 12:17:05;;;;;;;7.35;1.42;;;15.60;64.50;;;;;;5314835;26;20018;-82
2024/04/09 12:19:30;;;;;;;6.97;1.90;;;15.80;64.20;;;;;;5325982;26;20016;-81
2024/04/09 12:21:57;;;;;;;9.05;2.08;;;15.80;64.40;;;;;;5324867;26;20012;-80
2024/04/09 12:24:24;;;;;;;8.82;2.50;;;15.50;65.30;;;;;;5321866;26;20009;-77
2024/04/09 12:26:50;;;;;;;10.82;2.17;;;15.20;71.90;;;;;;5310929;26;20005;-79
2024/04/09 12:29:16;;;;;;;9.70;2.05;;;14.60;74.70;;;;;;5320190;26;20008;-79
2024/04/09 12:31:43;;;;;;;7.80;1.73;;;14.30;77.40;;;;;;5319581;26;20004;-80
2024/04/09 12:34:09;;;;;;;9.50;2.38;;;14.10;76.80;;;;;;5320447;26;20454;-80
2024/04/09 12:36:35;;;;;;;9.48;2.05;;;14.10;75.90;;;;;;5309676;26;20016;-80
2024/04/09 12:39:01;;;;;;;8.13;2.00;;;14.10;75.20;;;;;;5284039;26;20012;-78
2024/04/09 12:41:28;;;;;;;9.85;2.08;;;14.10;74.30;;;;;;5293539;26;20422;-80
2024/04/09 12:43:53;;;;;;;5.45;1.85;;;14.60;73.80;;;;;;5313584;26;20039;-81
2024/04/09 12:46:19;;;;;;;10.20;1.92;;;14.60;71.10;;;;;;5317348;26;20001;-80